Identifier: KMEV

AWOS Phone: 775-782-6264

AWOS Radio Freq: 119.325

Latitude: 39.00000000

Longitude: -119.75190000

Current Conditions

Updated: 12:39 AM GMT on 18 Jul 2019

  • Wind Speed (2min):
    17 Knots
  • Wind Direction (2min):
    280 Degrees
  • Temperature (10min):
    30 Celsius
  • Dew Point (10min):
    11 Celsius
  • Humidity:
    31 Percent
  • Altimeter:
    30.01 inHG
  • Density Altitude:
    7400 Feet
  • Visibility:
    10 Miles
  • Clouds:
    CLR
  • Rainfall Current Hour:
    0 Inches
METAR: METAR KMEV 180035Z AUTO 28013G22KT 10SM CLR 30/11 A3001 RMK AO2